Time;durP1;ratioP1;P1;durP2;ratioP2;P2;SDS_P1;SDS_P2;PMS_P1;PMS_P2;Temp;Humidity;BMP_temperature;BMP_pressure;BME280_temperature;BME280_humidity;BME280_pressure;Samples;Min_cycle;Max_cycle;Signal;HPM_P1;HPM_P2
2024/01/01 00:00:55;;;;;;;1.85;1.75;;;11.40;99.90;;;;;;5046633;28;20099;-87
2024/01/01 00:03:21;;;;;;;2.05;1.95;;;11.40;99.90;;;;;;5042249;28;20044;-89
2024/01/01 00:05:47;;;;;;;2.25;2.15;;;11.40;99.90;;;;;;5044301;28;20068;-85
2024/01/01 00:08:12;;;;;;;2.20;2.10;;;11.40;99.90;;;;;;5043223;28;20048;-87
2024/01/01 00:10:38;;;;;;;1.85;1.75;;;11.40;99.90;;;;;;5045032;28;20622;-86
2024/01/01 00:13:04;;;;;;;1.80;1.70;;;11.40;99.90;;;;;;5026078;28;20051;-86
2024/01/01 00:15:29;;;;;;;1.75;1.65;;;11.50;99.90;;;;;;5048326;28;20048;-87
2024/01/01 00:17:55;;;;;;;2.25;2.15;;;11.50;99.90;;;;;;5042584;28;20045;-91
2024/01/01 00:20:21;;;;;;;2.00;1.90;;;11.50;99.90;;;;;;5046328;28;20046;-84
2024/01/01 00:22:49;;;;;;;1.98;1.88;;;11.40;99.90;;;;;;5025669;28;20135;-85
2024/01/01 00:25:14;;;;;;;2.10;2.00;;;11.50;99.90;;;;;;5046469;28;20051;-89
2024/01/01 00:27:40;;;;;;;2.47;2.38;;;11.50;99.90;;;;;;5049195;28;20044;-87
2024/01/01 00:30:06;;;;;;;2.03;1.92;;;11.50;99.90;;;;;;5045776;28;20040;-86
2024/01/01 00:32:33;;;;;;;2.13;2.03;;;11.50;99.90;;;;;;5047226;28;20488;-88
2024/01/01 00:34:59;;;;;;;1.95;1.85;;;11.50;99.90;;;;;;5035095;28;20472;-86
2024/01/01 00:37:24;;;;;;;1.98;1.88;;;11.50;99.90;;;;;;5046355;28;20127;-88
2024/01/01 00:39:50;;;;;;;1.92;1.83;;;11.50;99.90;;;;;;5061352;28;20064;-86
2024/01/01 00:42:16;;;;;;;2.40;2.30;;;11.50;99.90;;;;;;5046248;28;20055;-87
2024/01/01 00:44:43;;;;;;;3.05;2.85;;;11.50;99.90;;;;;;5031797;28;20044;-85
2024/01/01 00:47:09;;;;;;;2.38;2.28;;;11.50;99.90;;;;;;5030751;28;20040;-86
2024/01/01 00:49:35;;;;;;;2.45;2.35;;;11.50;99.90;;;;;;5046298;28;20513;-87
2024/01/01 00:52:00;;;;;;;1.95;1.85;;;11.40;99.90;;;;;;5030800;28;20514;-86
2024/01/01 00:54:28;;;;;;;2.05;1.95;;;11.50;99.90;;;;;;5061362;28;20120;-87
2024/01/01 00:56:54;;;;;;;2.25;2.15;;;11.50;99.90;;;;;;5045426;28;20573;-84
2024/01/01 00:59:23;;;;;;;2.20;2.10;;;11.40;99.90;;;;;;5030778;28;20130;-87
2024/01/01 01:01:49;;;;;;;1.90;1.80;;;11.50;99.90;;;;;;5046919;28;20059;-86
2024/01/01 01:04:18;;;;;;;2.75;2.60;;;11.40;99.90;;;;;;5045375;28;20213;-87
2024/01/01 01:06:45;;;;;;;2.67;2.58;;;11.50;93.70;;;;;;5025213;28;20045;-87
2024/01/01 01:09:11;;;;;;;1.92;1.83;;;11.50;98.90;;;;;;5049165;28;20072;-88
2024/01/01 01:11:38;;;;;;;2.03;1.92;;;11.50;93.50;;;;;;5050536;28;20041;-90
2024/01/01 01:14:04;;;;;;;2.30;2.20;;;11.50;46.90;;;;;;5051939;28;20123;-85
2024/01/01 01:16:29;;;;;;;2.33;2.22;;;11.50;48.80;;;;;;5048007;28;20171;-87
2024/01/01 01:18:55;;;;;;;1.92;1.83;;;11.50;36.20;;;;;;5049863;28;20131;-89
2024/01/01 01:21:21;;;;;;;2.00;1.90;;;11.50;20.60;;;;;;5031042;28;20179;-90
2024/01/01 01:23:46;;;;;;;2.17;2.08;;;11.50;77.00;;;;;;5033691;28;20040;-86
2024/01/01 01:26:12;;;;;;;2.50;2.40;;;11.50;67.30;;;;;;5047088;28;20048;-89
2024/01/01 01:28:38;;;;;;;2.20;2.10;;;11.50;59.00;;;;;;5049642;28;20510;-90
2024/01/01 01:31:03;;;;;;;2.00;1.90;;;11.40;54.10;;;;;;5049585;28;20070;-86
2024/01/01 01:33:29;;;;;;;2.40;2.30;;;11.50;13.60;;;;;;5032421;28;20076;-86
2024/01/01 01:35:55;;;;;;;1.95;1.85;;;11.50;1.00;;;;;;5031597;28;20068;-89
2024/01/01 01:38:23;;;;;;;1.92;1.83;;;11.50;10.60;;;;;;5048805;28;20120;-86
2024/01/01 01:40:48;;;;;;;2.03;1.92;;;11.50;1.00;;;;;;5052580;28;20052;-88
2024/01/01 01:43:23;;;;;;;1.90;1.80;;;11.50;1.00;;;;;;5065519;28;20622;-86
2024/01/01 01:45:50;;;;;;;2.00;1.90;;;11.50;1.00;;;;;;5066623;28;20390;-87
2024/01/01 01:48:20;;;;;;;2.15;2.05;;;11.50;1.00;;;;;;5027639;28;20409;-86
2024/01/01 01:50:47;;;;;;;2.40;2.30;;;11.40;1.00;;;;;;5043962;28;20053;-85
2024/01/01 01:53:13;;;;;;;1.83;1.73;;;11.40;1.00;;;;;;5029922;28;20571;-88
2024/01/01 01:55:44;;;;;;;2.50;2.40;;;11.50;1.00;;;;;;5047513;28;20048;-86
2024/01/01 01:58:13;;;;;;;1.95;1.85;;;11.40;1.00;;;;;;5046158;28;20133;-93
2024/01/01 02:00:39;;;;;;;2.00;1.90;;;11.40;1.00;;;;;;5049142;28;20044;-91
2024/01/01 02:03:06;;;;;;;2.40;2.30;;;11.50;1.00;;;;;;5065266;28;20044;-87
2024/01/01 02:05:32;;;;;;;1.88;1.77;;;11.40;1.00;;;;;;5047129;28;20580;-88
2024/01/01 02:08:00;;;;;;;2.35;2.25;;;11.40;1.00;;;;;;5029367;28;20052;-85
2024/01/01 02:10:26;;;;;;;2.15;2.05;;;11.40;1.00;;;;;;5048731;28;20078;-88
2024/01/01 02:12:51;;;;;;;1.95;1.85;;;11.50;1.00;;;;;;5048578;28;20075;-87
2024/01/01 02:15:20;;;;;;;1.92;1.83;;;11.40;1.00;;;;;;5031874;28;20489;-90
2024/01/01 02:17:46;;;;;;;2.22;2.13;;;11.40;1.00;;;;;;5029336;28;20045;-86
2024/01/01 02:20:12;;;;;;;2.15;2.05;;;11.50;1.00;;;;;;5045686;28;20498;-90
2024/01/01 02:22:39;;;;;;;2.25;2.15;;;11.40;1.00;;;;;;5031170;28;20048;-87
2024/01/01 02:25:09;;;;;;;2.50;2.40;;;11.40;1.00;;;;;;5044645;28;20379;-89
2024/01/01 02:27:36;;;;;;;2.30;2.20;;;11.40;1.00;;;;;;5026078;28;20102;-92
2024/01/01 02:30:03;;;;;;;2.42;2.33;;;11.40;1.00;;;;;;5064045;28;20053;-89
2024/01/01 02:32:29;;;;;;;2.30;2.20;;;11.30;1.00;;;;;;5045735;28;20548;-86
2024/01/01 02:34:54;;;;;;;2.67;2.58;;;11.30;1.00;;;;;;5031305;28;20056;-86
2024/01/01 02:37:20;;;;;;;2.15;2.05;;;11.40;1.00;;;;;;5046010;28;20044;-87
2024/01/01 02:39:46;;;;;;;1.80;1.70;;;11.40;1.00;;;;;;5048508;28;20044;-85
2024/01/01 02:42:11;;;;;;;1.88;1.77;;;11.40;1.00;;;;;;5044447;28;20040;-87
2024/01/01 02:44:37;;;;;;;1.80;1.70;;;11.40;1.00;;;;;;5030381;28;20071;-89
2024/01/01 02:47:03;;;;;;;2.42;2.33;;;11.40;1.00;;;;;;5042109;28;20040;-88
2024/01/01 02:49:29;;;;;;;1.73;1.63;;;11.30;1.00;;;;;;5029700;28;20712;-86
2024/01/01 02:51:54;;;;;;;1.83;1.73;;;11.30;1.00;;;;;;5062880;28;20032;-88
2024/01/01 02:54:20;;;;;;;1.95;1.85;;;11.30;1.00;;;;;;5028293;28;20106;-88
2024/01/01 02:56:47;;;;;;;1.90;1.80;;;11.30;1.00;;;;;;5042705;28;20493;-86
2024/01/01 02:59:13;;;;;;;2.10;2.00;;;11.30;1.00;;;;;;5047975;28;20044;-91
2024/01/01 03:01:38;;;;;;;1.83;1.73;;;11.30;1.00;;;;;;5031174;28;20517;-88
2024/01/01 03:04:07;;;;;;;1.80;1.70;;;11.20;1.00;;;;;;5030091;28;20087;-90
2024/01/01 03:06:32;;;;;;;2.20;2.10;;;11.20;1.00;;;;;;5032728;28;20135;-89
2024/01/01 03:08:58;;;;;;;1.67;1.58;;;11.20;1.00;;;;;;5048409;28;20174;-91
2024/01/01 03:11:24;;;;;;;2.10;2.00;;;11.10;1.00;;;;;;5037402;28;20051;-87
2024/01/01 03:13:49;;;;;;;1.88;1.77;;;11.10;1.00;;;;;;5031248;28;20044;-87
2024/01/01 03:16:16;;;;;;;1.73;1.63;;;11.10;1.00;;;;;;5045059;28;20109;-89
2024/01/01 03:18:41;;;;;;;1.73;1.63;;;11.10;1.00;;;;;;5031990;28;20051;-85
2024/01/01 03:21:07;;;;;;;2.03;1.92;;;11.00;1.00;;;;;;5046916;28;20398;-86
2024/01/01 03:23:33;;;;;;;1.63;1.52;;;11.00;1.00;;;;;;5046543;28;20052;-86
2024/01/01 03:25:59;;;;;;;1.83;1.73;;;11.00;1.00;;;;;;5048404;28;20047;-87
2024/01/01 03:28:25;;;;;;;1.67;1.58;;;11.00;1.00;;;;;;5063019;28;20055;-88
2024/01/01 03:30:51;;;;;;;2.10;2.00;;;10.90;1.00;;;;;;5060226;28;20041;-85
2024/01/01 03:33:16;;;;;;;1.42;1.40;;;10.90;1.00;;;;;;5048301;28;20038;-88
2024/01/01 03:35:42;;;;;;;1.65;1.55;;;10.90;1.00;;;;;;5032515;28;20059;-88
2024/01/01 03:38:08;;;;;;;1.50;1.40;;;10.90;1.00;;;;;;5031293;28;20438;-88
2024/01/01 03:40:34;;;;;;;1.52;1.42;;;10.80;1.00;;;;;;5049768;28;20139;-88
2024/01/01 03:43:00;;;;;;;1.42;1.40;;;10.80;3.70;;;;;;5031487;28;20052;-87
2024/01/01 03:45:26;;;;;;;1.35;1.35;;;10.80;17.90;;;;;;5046650;28;20079;-84
2024/01/01 03:47:52;;;;;;;1.75;1.65;;;10.70;29.50;;;;;;5047937;28;20417;-88
2024/01/01 03:50:19;;;;;;;1.30;1.30;;;10.70;69.10;;;;;;5047744;28;20041;-87
2024/01/01 03:52:45;;;;;;;1.90;1.80;;;10.70;36.50;;;;;;5048593;28;20048;-89
2024/01/01 03:55:11;;;;;;;1.20;1.20;;;10.70;65.00;;;;;;5044987;28;20514;-88
2024/01/01 03:57:36;;;;;;;1.65;1.55;;;10.70;73.30;;;;;;5030808;28;20059;-88
2024/01/01 04:00:08;;;;;;;1.35;1.33;;;10.70;94.40;;;;;;5031933;28;20068;-91
2024/01/01 04:02:34;;;;;;;1.50;1.40;;;10.70;94.50;;;;;;5031607;28;20422;-88
2024/01/01 04:05:00;;;;;;;1.20;1.20;;;10.70;99.90;;;;;;5047242;28;20105;-87
2024/01/01 04:07:25;;;;;;;1.52;1.42;;;10.70;98.10;;;;;;5031122;28;20036;-87
2024/01/01 04:09:51;;;;;;;1.55;1.45;;;10.60;89.10;;;;;;5047247;28;20098;-90
2024/01/01 04:12:17;;;;;;;1.20;1.20;;;10.60;99.90;;;;;;5029427;28;20084;-88
2024/01/01 04:14:42;;;;;;;1.20;1.20;;;10.70;99.90;;;;;;5030666;28;20047;-87
2024/01/01 04:17:08;;;;;;;1.55;1.45;;;10.70;99.90;;;;;;5047288;28;20044;-86
2024/01/01 04:19:34;;;;;;;1.23;1.23;;;10.70;99.90;;;;;;5028989;28;20044;-89
2024/01/01 04:22:02;;;;;;;1.30;1.30;;;10.60;99.90;;;;;;5031898;28;20045;-89
2024/01/01 04:24:29;;;;;;;1.30;1.30;;;10.60;99.90;;;;;;5031730;28;20051;-88
2024/01/01 04:26:54;;;;;;;1.20;1.20;;;10.60;99.90;;;;;;5048849;28;20059;-89
2024/01/01 04:29:20;;;;;;;1.30;1.30;;;10.60;99.90;;;;;;5047889;28;20048;-88
2024/01/01 04:31:46;;;;;;;1.30;1.30;;;10.60;99.90;;;;;;5047319;28;20068;-86
2024/01/01 04:34:12;;;;;;;1.20;1.20;;;10.50;99.90;;;;;;5031908;28;20108;-88
2024/01/01 04:36:39;;;;;;;1.23;1.23;;;10.60;99.90;;;;;;5047418;28;20056;-93
2024/01/01 04:39:05;;;;;;;1.40;1.40;;;10.60;99.90;;;;;;5048273;28;20040;-88
2024/01/01 04:41:31;;;;;;;1.20;1.20;;;10.60;99.90;;;;;;5031378;28;20040;-88
2024/01/01 04:43:56;;;;;;;1.33;1.33;;;10.60;99.90;;;;;;5051593;28;20048;-86
2024/01/01 04:46:22;;;;;;;1.30;1.30;;;10.60;99.90;;;;;;5051236;28;20056;-86
2024/01/01 04:48:48;;;;;;;1.30;1.30;;;10.60;99.90;;;;;;5051144;28;20402;-89
2024/01/01 04:51:16;;;;;;;1.50;1.40;;;10.60;99.90;;;;;;5034358;28;20036;-87
2024/01/01 04:53:42;;;;;;;1.30;1.30;;;10.70;99.90;;;;;;5051474;28;20516;-89
2024/01/01 04:56:07;;;;;;;1.23;1.23;;;10.70;99.90;;;;;;5035325;28;20045;-89
2024/01/01 04:58:34;;;;;;;1.23;1.23;;;10.70;99.90;;;;;;5034343;28;20052;-86
2024/01/01 05:01:00;;;;;;;1.50;1.40;;;10.70;99.90;;;;;;5034564;28;20050;-88
2024/01/01 05:03:26;;;;;;;1.60;1.50;;;10.80;99.90;;;;;;5051428;28;20048;-89
2024/01/01 05:05:52;;;;;;;1.30;1.30;;;10.70;99.90;;;;;;5034059;28;20063;-90
2024/01/01 05:08:18;;;;;;;1.20;1.20;;;10.80;99.90;;;;;;5051395;28;20070;-89
2024/01/01 05:10:43;;;;;;;1.55;1.45;;;10.80;99.90;;;;;;5036780;28;20047;-89
2024/01/01 05:13:09;;;;;;;1.60;1.50;;;10.80;99.90;;;;;;5050553;28;20055;-89
2024/01/01 05:15:42;;;;;;;1.50;1.40;;;10.70;99.90;;;;;;5068145;28;20591;-90
2024/01/01 05:18:09;;;;;;;1.75;1.65;;;10.60;99.90;;;;;;5049775;28;20119;-92
2024/01/01 05:20:34;;;;;;;1.50;1.40;;;10.60;99.90;;;;;;5035192;28;20052;-90
2024/01/01 05:23:00;;;;;;;1.30;1.30;;;10.60;99.90;;;;;;5034896;28;20758;-88
2024/01/01 05:25:26;;;;;;;1.30;1.30;;;10.60;99.90;;;;;;5051348;28;20159;-88
2024/01/01 05:27:52;;;;;;;1.60;1.50;;;10.50;99.90;;;;;;5050571;28;20059;-89
2024/01/01 05:30:17;;;;;;;1.60;1.50;;;10.50;99.90;;;;;;5034478;28;20041;-90
2024/01/01 05:32:43;;;;;;;1.27;1.27;;;10.50;99.90;;;;;;5034449;28;20482;-91
2024/01/01 05:35:09;;;;;;;1.33;1.33;;;10.50;99.90;;;;;;5050622;28;20141;-89
2024/01/01 05:37:37;;;;;;;1.20;1.20;;;10.50;99.90;;;;;;5033934;28;20048;-88
2024/01/01 05:40:03;;;;;;;1.20;1.20;;;10.50;99.90;;;;;;5036025;28;20048;-89
2024/01/01 05:42:31;;;;;;;1.30;1.30;;;10.50;99.90;;;;;;5048906;28;20071;-90
2024/01/01 05:44:57;;;;;;;1.30;1.30;;;10.50;99.90;;;;;;5038220;28;20032;-89
2024/01/01 05:47:23;;;;;;;1.30;1.30;;;10.50;99.90;;;;;;5034291;28;20167;-89
2024/01/01 05:49:48;;;;;;;1.58;1.48;;;10.40;99.90;;;;;;5035561;28;20059;-91
2024/01/01 05:52:21;;;;;;;1.45;1.40;;;10.40;99.90;;;;;;5035332;28;20066;-90
2024/01/01 05:54:48;;;;;;;1.30;1.30;;;10.40;99.90;;;;;;5033717;28;20127;-92
2024/01/01 05:57:14;;;;;;;1.13;1.13;;;10.50;99.90;;;;;;5035905;28;20290;-92
2024/01/01 05:59:40;;;;;;;1.25;1.25;;;10.40;99.90;;;;;;5043016;28;20056;-89
2024/01/01 06:02:05;;;;;;;1.20;1.20;;;10.50;99.90;;;;;;5051551;28;20089;-90
2024/01/01 06:04:31;;;;;;;1.30;1.30;;;10.40;99.90;;;;;;5049878;28;20525;-90
2024/01/01 06:06:57;;;;;;;1.33;1.33;;;10.40;99.90;;;;;;5035748;28;20070;-89
2024/01/01 06:09:23;;;;;;;1.30;1.30;;;10.30;99.90;;;;;;5051203;28;20520;-91
2024/01/01 06:11:49;;;;;;;1.20;1.20;;;10.40;99.90;;;;;;5035216;28;20044;-88
2024/01/01 06:14:15;;;;;;;1.20;1.20;;;10.40;99.90;;;;;;5052791;28;20246;-91
2024/01/01 06:16:43;;;;;;;1.20;1.20;;;10.30;99.90;;;;;;5040911;28;20040;-90
2024/01/01 06:19:10;;;;;;;1.20;1.20;;;10.40;99.90;;;;;;5035464;28;20072;-91
2024/01/01 06:21:36;;;;;;;1.20;1.20;;;10.40;99.90;;;;;;5034590;28;20516;-91
2024/01/01 06:24:01;;;;;;;1.30;1.30;;;10.30;99.90;;;;;;5050254;28;20033;-90
2024/01/01 06:26:27;;;;;;;1.10;1.10;;;10.40;99.90;;;;;;5034997;28;20135;-89
2024/01/01 06:28:53;;;;;;;1.10;1.10;;;10.30;99.90;;;;;;5034905;28;20047;-87
2024/01/01 06:31:18;;;;;;;1.10;1.10;;;10.40;99.90;;;;;;5033802;28;20058;-90
2024/01/01 06:33:44;;;;;;;1.10;1.10;;;10.30;99.90;;;;;;5035769;28;20098;-88
2024/01/01 06:36:10;;;;;;;1.23;1.23;;;10.30;99.90;;;;;;5049806;28;20053;-93
2024/01/01 06:38:38;;;;;;;1.35;1.33;;;10.40;99.90;;;;;;5034204;28;20076;-88
2024/01/01 06:41:05;;;;;;;1.10;1.10;;;10.40;99.90;;;;;;5050405;28;20041;-89
2024/01/01 06:43:32;;;;;;;1.10;1.10;;;10.30;99.90;;;;;;5033917;28;20036;-90
2024/01/01 06:45:58;;;;;;;1.10;1.10;;;10.40;99.90;;;;;;5050956;28;20550;-88
2024/01/01 06:48:24;;;;;;;1.23;1.23;;;10.30;99.90;;;;;;5033877;28;20052;-89
2024/01/01 06:50:49;;;;;;;1.20;1.20;;;10.30;99.90;;;;;;5048957;28;20043;-88
2024/01/01 06:53:15;;;;;;;1.20;1.20;;;10.40;99.90;;;;;;5032435;28;20075;-90
2024/01/01 06:55:41;;;;;;;1.15;1.15;;;10.40;99.90;;;;;;5034134;28;20045;-87
2024/01/01 06:58:06;;;;;;;1.23;1.23;;;10.40;99.90;;;;;;5034548;28;20063;-92
2024/01/01 07:00:32;;;;;;;1.10;1.10;;;10.40;99.90;;;;;;5030659;28;20063;-88
2024/01/01 07:02:58;;;;;;;1.15;1.15;;;10.40;99.90;;;;;;5032347;28;20051;-87
2024/01/01 07:05:28;;;;;;;1.10;1.10;;;10.40;99.90;;;;;;5030657;28;20083;-91
2024/01/01 07:07:54;;;;;;;1.10;1.10;;;10.40;99.90;;;;;;5048928;28;20772;-90
2024/01/01 07:10:20;;;;;;;1.20;1.20;;;10.40;99.90;;;;;;5031856;28;20489;-88
2024/01/01 07:12:46;;;;;;;1.00;1.00;;;10.40;99.90;;;;;;5047956;28;20040;-89
2024/01/01 07:15:11;;;;;;;1.23;1.23;;;10.40;99.90;;;;;;5045764;28;20119;-89
2024/01/01 07:17:37;;;;;;;1.20;1.20;;;10.40;99.90;;;;;;5031757;28;20097;-89
2024/01/01 07:20:06;;;;;;;1.15;1.15;;;10.40;99.90;;;;;;5044831;28;20056;-89
2024/01/01 07:22:32;;;;;;;1.10;1.10;;;10.30;99.90;;;;;;5033820;28;20079;-88
2024/01/01 07:24:58;;;;;;;1.13;1.13;;;10.30;99.90;;;;;;5030957;28;20457;-91
2024/01/01 07:27:23;;;;;;;1.15;1.15;;;10.40;99.90;;;;;;5033513;28;20048;-87
2024/01/01 07:29:52;;;;;;;1.15;1.15;;;10.30;99.90;;;;;;5033199;28;20040;-95
2024/01/01 07:32:18;;;;;;;1.13;1.13;;;10.30;99.90;;;;;;5048867;28;20067;-90
2024/01/01 07:34:43;;;;;;;1.05;1.05;;;10.30;99.90;;;;;;5032454;28;20036;-88
2024/01/01 07:37:10;;;;;;;1.05;1.05;;;10.40;99.90;;;;;;5034050;28;20048;-92
2024/01/01 07:39:36;;;;;;;1.23;1.23;;;10.30;99.90;;;;;;5031831;28;20749;-88
2024/01/01 07:42:03;;;;;;;1.15;1.15;;;10.40;99.90;;;;;;5032101;28;20123;-89
2024/01/01 07:44:28;;;;;;;1.10;1.10;;;10.20;99.90;;;;;;5047833;28;20064;-89
2024/01/01 07:46:54;;;;;;;1.02;1.02;;;10.30;99.90;;;;;;5031196;28;20048;-88
2024/01/01 07:49:20;;;;;;;1.20;1.20;;;10.20;99.90;;;;;;5049084;28;20044;-91
2024/01/01 07:51:45;;;;;;;1.10;1.10;;;10.20;99.90;;;;;;5047588;28;20120;-91
2024/01/01 07:54:13;;;;;;;1.10;1.10;;;10.30;99.90;;;;;;5046594;28;20044;-89
2024/01/01 07:56:49;;;;;;;1.30;1.20;;;10.30;99.90;;;;;;5047106;28;20060;-93
2024/01/01 07:59:15;;;;;;;1.05;1.05;;;10.30;99.90;;;;;;5044982;28;20045;-88
2024/01/01 08:01:42;;;;;;;1.20;1.20;;;10.40;99.90;;;;;;5028171;28;20067;-89
2024/01/01 08:04:16;;;;;;;1.02;1.02;;;10.40;99.90;;;;;;5049436;28;20101;-91
2024/01/01 08:06:42;;;;;;;1.13;1.13;;;10.40;99.90;;;;;;5030098;28;20185;-91
2024/01/01 08:09:10;;;;;;;1.00;1.00;;;10.50;99.90;;;;;;5030567;28;20506;-93
2024/01/01 08:11:36;;;;;;;1.15;1.15;;;10.40;99.90;;;;;;5032603;28;20041;-89
2024/01/01 08:14:02;;;;;;;1.00;1.00;;;10.40;99.90;;;;;;5048839;28;20062;-89
2024/01/01 08:16:28;;;;;;;1.10;1.10;;;10.50;99.90;;;;;;5035685;28;20040;-91
2024/01/01 08:18:53;;;;;;;1.10;1.10;;;10.40;99.90;;;;;;5035794;28;20091;-90
2024/01/01 08:21:20;;;;;;;1.10;1.10;;;10.40;99.90;;;;;;5034456;28;20478;-92
2024/01/01 08:23:46;;;;;;;0.95;0.95;;;10.40;99.90;;;;;;5032710;28;20036;-90
2024/01/01 08:26:12;;;;;;;1.17;1.17;;;10.40;99.90;;;;;;5034813;28;20074;-91
2024/01/01 08:28:37;;;;;;;1.00;1.00;;;10.50;99.90;;;;;;5033632;28;20094;-93
2024/01/01 08:31:03;;;;;;;1.10;1.10;;;10.50;99.90;;;;;;5034265;28;20044;-91
2024/01/01 08:33:29;;;;;;;1.23;1.23;;;10.40;99.90;;;;;;5033433;28;20043;-92
2024/01/01 08:35:58;;;;;;;1.10;1.10;;;10.50;99.90;;;;;;5034056;28;20051;-94
2024/01/01 08:38:29;;;;;;;1.10;1.10;;;10.50;99.90;;;;;;5033877;28;20059;-91
2024/01/01 08:41:00;;;;;;;1.10;1.10;;;10.50;99.90;;;;;;5036177;28;20436;-92
2024/01/01 08:43:26;;;;;;;1.00;1.00;;;10.50;99.90;;;;;;5050288;28;20041;-88
2024/01/01 08:45:52;;;;;;;1.17;1.17;;;10.60;99.90;;;;;;5034167;28;20044;-90
2024/01/01 08:48:20;;;;;;;1.10;1.10;;;10.60;99.90;;;;;;5033982;28;20033;-93
2024/01/01 08:50:46;;;;;;;1.10;1.10;;;10.50;99.90;;;;;;5033463;28;20045;-94
2024/01/01 08:53:12;;;;;;;1.10;1.10;;;10.60;99.90;;;;;;5033203;28;20114;-93
2024/01/01 08:55:37;;;;;;;1.17;1.17;;;10.60;99.90;;;;;;5033532;28;20060;-89
2024/01/01 08:58:06;;;;;;;1.00;1.00;;;10.60;99.90;;;;;;5050648;28;20103;-91
2024/01/01 09:00:35;;;;;;;1.10;1.10;;;10.60;99.90;;;;;;5046247;28;20052;-91
2024/01/01 09:03:01;;;;;;;1.33;1.33;;;10.50;99.90;;;;;;5030714;28;20169;-90
2024/01/01 09:05:26;;;;;;;1.15;1.15;;;10.60;99.90;;;;;;5046209;28;20045;-92
2024/01/01 09:07:55;;;;;;;1.38;1.35;;;10.60;99.90;;;;;;5031678;28;21309;-92
2024/01/01 09:10:21;;;;;;;1.20;1.20;;;10.60;99.90;;;;;;5032924;28;20045;-91
2024/01/01 09:12:47;;;;;;;1.10;1.10;;;10.60;99.90;;;;;;5032283;28;20036;-92
2024/01/01 09:15:17;;;;;;;1.10;1.10;;;10.60;99.90;;;;;;5031339;28;20045;-92
2024/01/01 09:17:43;;;;;;;1.08;1.08;;;10.60;99.90;;;;;;5052069;28;20056;-92
2024/01/01 09:20:11;;;;;;;1.20;1.20;;;10.60;99.90;;;;;;5032226;28;20093;-91
2024/01/01 09:22:40;;;;;;;1.20;1.20;;;10.60;99.90;;;;;;5033474;28;20397;-91
2024/01/01 09:25:08;;;;;;;1.13;1.13;;;10.70;99.90;;;;;;5049038;28;20080;-91
2024/01/01 09:27:34;;;;;;;1.23;1.23;;;10.70;99.90;;;;;;5046418;28;20497;-88
2024/01/01 09:30:00;;;;;;;1.23;1.23;;;10.70;99.90;;;;;;5054203;28;20040;-91
2024/01/01 09:32:26;;;;;;;1.13;1.13;;;10.70;99.90;;;;;;5039274;28;20032;-92
2024/01/01 09:34:51;;;;;;;1.15;1.15;;;10.60;99.90;;;;;;5054168;28;20090;-94
2024/01/01 09:37:17;;;;;;;1.42;1.38;;;10.50;99.90;;;;;;5036381;28;20079;-90
2024/01/01 09:39:43;;;;;;;1.13;1.13;;;10.60;99.90;;;;;;5038127;28;20052;-91
2024/01/01 09:42:09;;;;;;;1.10;1.10;;;10.70;99.90;;;;;;5037071;28;20040;-91
2024/01/01 09:44:36;;;;;;;1.17;1.17;;;10.70;99.90;;;;;;5035965;28;20036;-90
2024/01/01 09:47:06;;;;;;;1.50;1.42;;;10.70;99.90;;;;;;5038241;28;20481;-91
2024/01/01 09:49:32;;;;;;;1.17;1.17;;;10.80;99.90;;;;;;5051890;28;20593;-88
2024/01/01 09:52:01;;;;;;;1.27;1.27;;;10.80;99.90;;;;;;5036560;28;20485;-93
2024/01/01 09:54:27;;;;;;;1.20;1.20;;;11.00;99.90;;;;;;5051503;28;20040;-92
2024/01/01 09:56:52;;;;;;;1.20;1.20;;;11.10;99.90;;;;;;5036273;28;20497;-92
2024/01/01 09:59:37;;;;;;;1.20;1.20;;;11.10;99.90;;;;;;5052882;28;20045;-92
2024/01/01 10:02:07;;;;;;;1.30;1.30;;;11.10;99.90;;;;;;5052818;28;20561;-90
2024/01/01 10:04:34;;;;;;;1.63;1.52;;;11.20;99.90;;;;;;5066128;28;20052;-89
2024/01/01 10:07:00;;;;;;;1.25;1.25;;;11.20;99.90;;;;;;5052182;28;20155;-89
2024/01/01 10:09:27;;;;;;;1.83;1.73;;;11.20;99.90;;;;;;5033806;28;20052;-89
2024/01/01 10:12:05;;;;;;;1.63;1.52;;;11.20;99.90;;;;;;5048835;28;20036;-88
2024/01/01 10:14:31;;;;;;;1.38;1.38;;;11.10;99.90;;;;;;5048700;28;20052;-88
2024/01/01 10:17:18;;;;;;;1.30;1.30;;;10.90;99.90;;;;;;5050655;28;20048;-94
2024/01/01 10:20:02;;;;;;;1.42;1.40;;;10.90;99.90;;;;;;5037697;28;20036;-93
2024/01/01 10:22:29;;;;;;;1.63;1.52;;;10.90;99.90;;;;;;5035759;28;20048;-89
2024/01/01 10:25:12;;;;;;;1.52;1.42;;;10.90;99.90;;;;;;5036154;28;20051;-92
2024/01/01 10:27:43;;;;;;;1.60;1.50;;;10.90;99.90;;;;;;5067835;28;20040;-90
2024/01/01 10:30:11;;;;;;;1.65;1.55;;;10.80;99.90;;;;;;5051876;28;20041;-91
2024/01/01 10:32:39;;;;;;;1.65;1.55;;;10.80;99.90;;;;;;5065513;28;20045;-90
2024/01/01 10:35:06;;;;;;;1.17;1.17;;;10.70;99.90;;;;;;5049969;28;20044;-89
2024/01/01 10:37:35;;;;;;;1.20;1.20;;;10.80;99.90;;;;;;5051658;28;20525;-89
2024/01/01 10:40:05;;;;;;;1.10;1.10;;;10.70;99.90;;;;;;5048337;28;20048;-93
2024/01/01 10:42:34;;;;;;;1.60;1.50;;;10.80;99.90;;;;;;5048686;28;20509;-92
2024/01/01 10:45:04;;;;;;;1.25;1.25;;;10.80;99.90;;;;;;5048538;28;20314;-89
2024/01/01 10:47:30;;;;;;;1.15;1.15;;;10.80;99.90;;;;;;5032900;28;20044;-90
2024/01/01 10:50:22;;;;;;;1.35;1.33;;;10.90;99.90;;;;;;5033119;28;20097;-89
2024/01/01 10:52:54;;;;;;;1.17;1.17;;;10.90;99.90;;;;;;5034230;28;20585;-90
2024/01/01 10:55:48;;;;;;;1.38;1.35;;;11.00;99.90;;;;;;5064668;28;20467;-88
2024/01/01 10:58:52;;;;;;;1.25;1.25;;;11.20;99.90;;;;;;5035034;28;20048;-89
2024/01/01 11:01:19;;;;;;;;;;;11.10;99.90;;;;;;5032415;28;20076;-92
2024/01/01 11:03:48;;;;;;;1.13;1.13;;;11.20;99.90;;;;;;5052441;28;19942;-89
2024/01/01 11:06:32;;;;;;;1.38;1.35;;;11.00;99.90;;;;;;5049746;28;20059;-90
2024/01/01 11:09:18;;;;;;;1.25;1.25;;;11.00;99.90;;;;;;5047470;28;20060;-91
2024/01/01 11:11:47;;;;;;;;;;;11.00;99.90;;;;;;5050175;28;20051;-90
2024/01/01 11:14:27;;;;;;;1.17;1.17;;;11.00;99.90;;;;;;5032452;28;19924;-91
2024/01/01 11:16:54;;;;;;;1.15;1.15;;;11.00;99.90;;;;;;5033894;28;20072;-90
2024/01/01 11:19:46;;;;;;;1.58;1.48;;;11.00;99.90;;;;;;5033837;28;20090;-90
2024/01/01 11:22:18;;;;;;;1.17;1.17;;;11.50;99.90;;;;;;5045314;28;20048;-90
2024/01/01 11:24:45;;;;;;;1.23;1.23;;;11.90;99.90;;;;;;5050196;28;20497;-91
2024/01/01 11:27:34;;;;;;;1.65;1.55;;;12.20;99.90;;;;;;5033528;28;20397;-89
2024/01/01 11:30:07;;;;;;;1.75;1.65;;;12.40;99.90;;;;;;5050338;28;20048;-90
2024/01/01 11:32:37;;;;;;;2.28;2.17;;;12.70;99.90;;;;;;5033604;28;20048;-91
2024/01/01 11:35:11;;;;;;;2.63;2.50;;;12.90;99.90;;;;;;5049821;28;20121;-90
2024/01/01 11:37:40;;;;;;;3.00;2.80;;;12.50;99.90;;;;;;5033317;28;20076;-90
2024/01/01 11:40:06;;;;;;;3.20;3.00;;;12.60;99.90;;;;;;5033937;28;20047;-89
2024/01/01 11:42:33;;;;;;;4.07;3.88;;;12.70;99.90;;;;;;5033657;28;20057;-93
2024/01/01 11:45:18;;;;;;;4.45;4.15;;;12.60;99.90;;;;;;5028624;28;20045;-91
2024/01/01 11:47:48;;;;;;;4.07;3.88;;;12.50;99.90;;;;;;5031973;28;20064;-93
2024/01/01 11:50:14;;;;;;;6.05;5.68;;;12.80;99.90;;;;;;5032933;28;20040;-89
2024/01/01 11:52:40;;;;;;;5.93;5.63;;;13.10;99.90;;;;;;5031880;28;20062;-89
2024/01/01 11:55:07;;;;;;;5.95;5.65;;;13.20;99.90;;;;;;5034106;28;20036;-95
2024/01/01 11:57:34;;;;;;;5.88;5.53;;;13.10;99.90;;;;;;5033409;28;20055;-91
2024/01/01 12:00:00;;;;;;;6.80;6.40;;;13.00;99.90;;;;;;5033186;28;20048;-92
2024/01/01 12:02:27;;;;;;;7.28;6.88;;;12.90;99.90;;;;;;5031809;28;20063;-89
2024/01/01 12:04:54;;;;;;;8.98;8.43;;;13.00;99.90;;;;;;5048180;28;20056;-91
2024/01/01 12:07:31;;;;;;;7.38;6.97;;;12.70;99.90;;;;;;5047724;28;20044;-90
2024/01/01 12:10:06;;;;;;;8.80;8.30;;;12.40;99.90;;;;;;5048825;28;20063;-87
2024/01/01 12:12:35;;;;;;;6.93;6.53;;;12.40;99.90;;;;;;5048551;28;20037;-90
2024/01/01 12:15:11;;;;;;;6.90;6.50;;;12.20;99.90;;;;;;5063272;28;20712;-91
2024/01/01 12:17:49;;;;;;;6.18;5.80;;;12.10;99.90;;;;;;5045499;28;20075;-88
2024/01/01 12:20:18;;;;;;;5.53;5.22;;;12.10;99.90;;;;;;5048034;28;20051;-90
2024/01/01 12:22:45;;;;;;;4.75;4.45;;;12.00;99.90;;;;;;5035353;28;20067;-91
2024/01/01 12:25:21;;;;;;;3.92;3.72;;;12.00;99.90;;;;;;5036433;28;20537;-88
2024/01/01 12:28:04;;;;;;;4.20;4.00;;;12.00;99.90;;;;;;5048799;28;20596;-92
2024/01/01 12:30:31;;;;;;;3.42;3.22;;;12.40;99.90;;;;;;5031508;28;20126;-90
2024/01/01 12:32:57;;;;;;;3.63;3.42;;;12.40;99.90;;;;;;5033662;28;20093;-92
2024/01/01 12:35:23;;;;;;;4.03;3.83;;;12.30;99.90;;;;;;5031944;28;20097;-90
2024/01/01 12:37:50;;;;;;;3.70;3.50;;;12.30;99.90;;;;;;5029388;28;20101;-91
2024/01/01 12:40:16;;;;;;;4.97;4.68;;;12.30;99.90;;;;;;5066097;28;20037;-90
2024/01/01 12:42:43;;;;;;;3.80;3.60;;;12.30;99.90;;;;;;5032130;28;20131;-90
2024/01/01 12:45:09;;;;;;;4.78;4.47;;;12.00;99.90;;;;;;5030982;28;20111;-89
2024/01/01 12:47:34;;;;;;;5.40;5.10;;;12.20;99.90;;;;;;5032541;28;20048;-89
2024/01/01 12:50:00;;;;;;;5.28;4.97;;;12.30;99.90;;;;;;5031659;28;20048;-92